Time;durP1;ratioP1;P1;durP2;ratioP2;P2;SDS_P1;SDS_P2;PMS_P1;PMS_P2;Temp;Humidity;BMP_temperature;BMP_pressure;BME280_temperature;BME280_humidity;BME280_pressure;Samples;Min_cycle;Max_cycle;Signal;HPM_P1;HPM_P2
2022/03/02 00:01:58;;;;;;;29.25;18.00;;;6.40;99.90;;;;;;5054908;28;20071;-75
2022/03/02 00:04:24;;;;;;;33.53;19.13;;;6.40;99.90;;;;;;5036236;28;20025;-74
2022/03/02 00:06:50;;;;;;;34.60;20.70;;;6.40;99.90;;;;;;5035486;28;20053;-75
2022/03/02 00:09:16;;;;;;;36.00;20.27;;;6.50;99.90;;;;;;5037296;28;20029;-75
2022/03/02 00:11:42;;;;;;;32.60;20.08;;;6.70;99.90;;;;;;5046168;28;20037;-75
2022/03/02 00:14:08;;;;;;;33.38;20.27;;;6.60;99.90;;;;;;5045586;28;20326;-75
2022/03/02 00:16:35;;;;;;;34.90;21.42;;;6.60;99.90;;;;;;5037581;28;20119;-75
2022/03/02 00:19:02;;;;;;;32.97;20.55;;;6.50;99.90;;;;;;5055256;28;20056;-75
2022/03/02 00:21:28;;;;;;;35.20;21.08;;;6.50;99.90;;;;;;5056056;28;20028;-76
2022/03/02 00:23:54;;;;;;;35.88;21.33;;;6.60;99.90;;;;;;5074485;28;20147;-75
2022/03/02 00:26:21;;;;;;;32.03;21.30;;;6.50;99.90;;;;;;5055045;28;20154;-77
2022/03/02 00:28:47;;;;;;;30.98;18.33;;;6.50;99.90;;;;;;5074508;28;20024;-74
2022/03/02 00:31:13;;;;;;;32.85;19.70;;;6.60;99.90;;;;;;5074383;28;20107;-76
2022/03/02 00:33:40;;;;;;;27.90;17.25;;;6.50;99.90;;;;;;5056390;28;20086;-76
2022/03/02 00:36:07;;;;;;;26.13;15.23;;;6.50;99.90;;;;;;5065430;28;20043;-77
2022/03/02 00:38:33;;;;;;;20.60;14.05;;;6.70;99.90;;;;;;5054308;28;20120;-76
2022/03/02 00:40:59;;;;;;;23.45;14.43;;;6.60;99.90;;;;;;5016504;28;20033;-77
2022/03/02 00:43:25;;;;;;;19.45;13.20;;;6.80;99.90;;;;;;5048439;28;20079;-75
2022/03/02 00:45:51;;;;;;;17.73;11.40;;;6.70;99.90;;;;;;5066033;28;20068;-76
2022/03/02 00:48:18;;;;;;;16.95;10.90;;;6.70;99.90;;;;;;5060983;28;20035;-76
2022/03/02 00:50:44;;;;;;;18.63;11.38;;;6.80;99.90;;;;;;5035408;28;20103;-76
2022/03/02 00:53:11;;;;;;;19.30;12.00;;;6.80;99.90;;;;;;5053847;28;20064;-75
2022/03/02 00:55:38;;;;;;;22.45;15.98;;;6.80;99.90;;;;;;5071087;28;20391;-75
2022/03/02 00:58:05;;;;;;;27.90;17.95;;;6.60;99.90;;;;;;5047062;28;20033;-76
2022/03/02 01:00:32;;;;;;;31.58;20.40;;;6.50;99.90;;;;;;5035975;28;20035;-76
2022/03/02 01:02:58;;;;;;;33.72;22.65;;;6.60;99.90;;;;;;5054158;28;20032;-76
2022/03/02 01:05:25;;;;;;;40.40;24.38;;;6.70;99.90;;;;;;5027628;28;20029;-76
2022/03/02 01:07:51;;;;;;;42.05;28.20;;;6.60;99.90;;;;;;5036203;28;20024;-75
2022/03/02 01:10:17;;;;;;;43.15;26.75;;;6.40;99.90;;;;;;5034118;28;20037;-76
2022/03/02 01:12:44;;;;;;;49.72;29.40;;;6.40;99.90;;;;;;5033799;28;20115;-76
2022/03/02 01:15:11;;;;;;;46.72;30.52;;;6.60;99.90;;;;;;5056247;28;20036;-76
2022/03/02 01:17:38;;;;;;;50.45;30.27;;;6.50;99.90;;;;;;5051476;28;20056;-76
2022/03/02 01:20:07;;;;;;;51.58;31.20;;;6.50;99.90;;;;;;5046115;28;20029;-76
2022/03/02 01:22:33;;;;;;;47.45;29.08;;;6.60;99.90;;;;;;5073509;28;20117;-76
2022/03/02 01:24:59;;;;;;;49.50;29.60;;;6.50;99.90;;;;;;5065469;28;20511;-76
2022/03/02 01:27:25;;;;;;;51.95;32.90;;;6.50;99.90;;;;;;5035508;28;20533;-76
2022/03/02 01:29:51;;;;;;;49.65;31.60;;;6.40;99.90;;;;;;5053301;28;20028;-76
2022/03/02 01:32:18;;;;;;;48.60;30.40;;;6.40;99.90;;;;;;5047174;28;20055;-76
2022/03/02 01:34:44;;;;;;;47.67;30.30;;;6.50;99.90;;;;;;5072182;28;20029;-79
2022/03/02 01:37:10;;;;;;;57.45;35.58;;;6.50;99.90;;;;;;5071487;28;20024;-77
2022/03/02 01:39:37;;;;;;;55.80;36.80;;;6.40;99.90;;;;;;5068930;28;20028;-77
2022/03/02 01:42:05;;;;;;;57.80;37.20;;;6.50;99.90;;;;;;5066709;28;20016;-77
2022/03/02 01:44:35;;;;;;;56.55;37.95;;;6.50;99.90;;;;;;5043804;28;20075;-77
2022/03/02 01:47:02;;;;;;;57.33;37.63;;;6.20;99.90;;;;;;5052722;28;20501;-76
2022/03/02 01:49:28;;;;;;;50.22;32.00;;;6.30;99.90;;;;;;5034789;28;20029;-76
2022/03/02 01:51:55;;;;;;;42.70;27.08;;;6.30;99.90;;;;;;5035273;28;20040;-76
2022/03/02 01:54:21;;;;;;;39.55;26.50;;;6.20;99.90;;;;;;5052832;28;20060;-77
2022/03/02 01:56:49;;;;;;;45.63;27.90;;;6.20;99.90;;;;;;5034881;28;20119;-77
2022/03/02 01:59:15;;;;;;;35.78;24.80;;;6.50;99.90;;;;;;5051964;28;20021;-77
2022/03/02 02:01:42;;;;;;;38.42;26.20;;;6.60;99.90;;;;;;5048157;28;20036;-77
2022/03/02 02:04:09;;;;;;;33.28;22.30;;;6.60;99.90;;;;;;5020144;28;20483;-76
2022/03/02 02:06:35;;;;;;;27.60;18.98;;;6.30;99.90;;;;;;5038263;28;20053;-76
2022/03/02 02:09:04;;;;;;;27.05;17.35;;;6.40;99.90;;;;;;5052147;28;20029;-78
2022/03/02 02:11:32;;;;;;;27.70;18.83;;;6.50;99.90;;;;;;5034610;28;20047;-76
2022/03/02 02:13:59;;;;;;;27.60;19.30;;;6.50;99.90;;;;;;5056440;28;20107;-75
2022/03/02 02:16:25;;;;;;;28.60;19.17;;;6.50;99.90;;;;;;5054566;28;20108;-76
2022/03/02 02:18:54;;;;;;;32.05;20.10;;;6.40;99.90;;;;;;5062189;28;20029;-76
2022/03/02 02:21:21;;;;;;;25.80;17.15;;;6.30;99.90;;;;;;5053390;28;20065;-76
2022/03/02 02:23:50;;;;;;;28.95;19.90;;;6.50;99.90;;;;;;5048459;28;20036;-78
2022/03/02 02:26:16;;;;;;;24.98;18.88;;;6.70;99.90;;;;;;5044937;28;20034;-77
2022/03/02 02:28:44;;;;;;;27.77;17.83;;;6.60;99.90;;;;;;5058212;28;20042;-77
2022/03/02 02:31:10;;;;;;;26.27;18.45;;;6.60;99.90;;;;;;5059789;28;20041;-77
2022/03/02 02:33:36;;;;;;;26.45;16.65;;;6.70;99.90;;;;;;5055694;28;20476;-75
2022/03/02 02:36:06;;;;;;;22.98;16.52;;;6.80;99.90;;;;;;5029729;28;20029;-79
2022/03/02 02:38:32;;;;;;;32.33;19.52;;;6.90;99.90;;;;;;5035391;28;20037;-77
2022/03/02 02:40:58;;;;;;;33.78;22.13;;;7.00;99.90;;;;;;5061446;28;20021;-78
2022/03/02 02:43:26;;;;;;;29.67;20.88;;;7.10;99.90;;;;;;5063237;28;20021;-77
2022/03/02 02:45:53;;;;;;;29.15;18.98;;;6.90;99.90;;;;;;5071143;28;20021;-77
2022/03/02 02:48:20;;;;;;;28.95;19.45;;;6.90;99.90;;;;;;5069475;28;20029;-78
2022/03/02 02:50:46;;;;;;;33.13;20.80;;;7.00;99.90;;;;;;5042004;28;20033;-77
2022/03/02 02:53:13;;;;;;;42.22;24.67;;;7.20;99.90;;;;;;5074770;28;20089;-77
2022/03/02 02:55:40;;;;;;;36.25;24.63;;;7.20;99.90;;;;;;5049716;28;20296;-77
2022/03/02 02:58:07;;;;;;;41.25;25.08;;;7.20;99.90;;;;;;5067122;28;20380;-77
2022/03/02 03:00:37;;;;;;;40.03;25.67;;;7.10;99.90;;;;;;5034718;28;20025;-77
2022/03/02 03:03:03;;;;;;;38.00;25.38;;;7.20;99.90;;;;;;5053303;28;20116;-77
2022/03/02 03:05:32;;;;;;;45.05;26.33;;;7.20;99.90;;;;;;5033551;28;20021;-81
2022/03/02 03:08:01;;;;;;;41.55;26.58;;;7.40;99.90;;;;;;5042281;28;20454;-78
2022/03/02 03:10:28;;;;;;;42.92;27.95;;;7.50;99.90;;;;;;5048547;28;20025;-78
2022/03/02 03:12:54;;;;;;;48.25;28.38;;;7.40;99.90;;;;;;5048360;28;20071;-79
2022/03/02 03:15:21;;;;;;;38.60;25.25;;;7.40;99.90;;;;;;5048330;28;20037;-77
2022/03/02 03:17:48;;;;;;;39.30;26.13;;;7.40;99.90;;;;;;5029947;28;20024;-78
2022/03/02 03:20:17;;;;;;;44.72;29.20;;;7.40;99.90;;;;;;5029997;28;20021;-83
2022/03/02 03:22:44;;;;;;;48.55;28.80;;;7.40;99.90;;;;;;5049340;28;20032;-80
2022/03/02 03:25:12;;;;;;;43.28;28.60;;;7.30;99.90;;;;;;5030317;28;20490;-79
2022/03/02 03:27:40;;;;;;;47.97;29.95;;;7.20;99.90;;;;;;5058421;28;20097;-80
2022/03/02 03:30:08;;;;;;;44.55;29.38;;;7.30;99.90;;;;;;5034419;28;20060;-80
2022/03/02 03:32:35;;;;;;;45.55;28.65;;;7.40;99.90;;;;;;5052093;28;20036;-82
2022/03/02 03:35:04;;;;;;;44.38;30.10;;;7.50;99.90;;;;;;5043585;28;20039;-79
2022/03/02 03:37:31;;;;;;;44.08;29.73;;;7.40;99.90;;;;;;5030389;28;20059;-78
2022/03/02 03:39:57;;;;;;;42.22;28.65;;;7.50;99.90;;;;;;5044547;28;20025;-78
2022/03/02 03:42:23;;;;;;;46.58;28.38;;;7.60;99.90;;;;;;5047763;28;20021;-79
2022/03/02 03:44:50;;;;;;;44.75;28.73;;;7.50;99.90;;;;;;5031583;28;20037;-80
2022/03/02 03:47:16;;;;;;;45.50;29.27;;;7.60;99.90;;;;;;5047456;28;20044;-80
2022/03/02 03:49:42;;;;;;;42.08;26.60;;;7.70;99.90;;;;;;5049438;28;20033;-79
2022/03/02 03:52:09;;;;;;;42.85;28.20;;;7.70;99.90;;;;;;5047783;28;20039;-79
2022/03/02 03:54:36;;;;;;;41.53;28.35;;;7.90;99.90;;;;;;5034143;28;20032;-77
2022/03/02 03:57:02;;;;;;;47.97;31.63;;;7.90;99.90;;;;;;5030426;28;20025;-78
2022/03/02 03:59:28;;;;;;;41.95;27.88;;;7.90;99.90;;;;;;5038019;28;20378;-78
2022/03/02 04:01:54;;;;;;;38.47;25.33;;;7.70;99.90;;;;;;5048200;28;20499;-77
2022/03/02 04:04:21;;;;;;;37.60;23.65;;;7.80;99.90;;;;;;5052621;28;20021;-78
2022/03/02 04:06:47;;;;;;;39.00;25.90;;;7.80;99.90;;;;;;5048910;28;20492;-76
2022/03/02 04:09:13;;;;;;;38.13;23.95;;;8.10;99.90;;;;;;5047311;28;20036;-79
2022/03/02 04:11:39;;;;;;;42.10;26.75;;;8.30;99.90;;;;;;5053061;28;20398;-77
2022/03/02 04:14:05;;;;;;;48.05;32.85;;;8.50;99.90;;;;;;5059445;28;20033;-77
2022/03/02 04:16:31;;;;;;;70.10;45.35;;;8.10;99.90;;;;;;5052689;28;20037;-79
2022/03/02 04:19:11;;;;;;;73.43;48.60;;;7.90;99.90;;;;;;5037349;28;20020;-79
2022/03/02 04:21:37;;;;;;;80.30;52.03;;;7.70;99.90;;;;;;5049261;28;20083;-77
2022/03/02 04:24:06;;;;;;;78.20;52.28;;;7.60;99.90;;;;;;5047530;28;20044;-79
2022/03/02 04:26:32;;;;;;;80.65;52.88;;;7.60;99.90;;;;;;5045510;28;20025;-81
2022/03/02 04:28:58;;;;;;;91.28;57.55;;;7.90;99.90;;;;;;5050647;28;20078;-78
2022/03/02 04:31:24;;;;;;;90.65;58.97;;;8.10;99.90;;;;;;5031890;28;20028;-79
2022/03/02 04:33:51;;;;;;;115.70;72.35;;;8.00;99.90;;;;;;5052373;28;20025;-80
2022/03/02 04:36:17;;;;;;;117.97;77.18;;;7.70;99.90;;;;;;5035545;28;20025;-82
2022/03/02 04:38:43;;;;;;;125.15;82.03;;;7.80;99.90;;;;;;5060300;28;20060;-81
2022/03/02 04:41:09;;;;;;;119.97;83.05;;;7.70;99.90;;;;;;5042516;28;20020;-84
2022/03/02 04:43:35;;;;;;;87.40;58.22;;;8.00;99.90;;;;;;5053584;28;20017;-83
2022/03/02 04:46:01;;;;;;;85.40;56.50;;;8.20;99.90;;;;;;5054568;28;20079;-82
2022/03/02 04:48:27;;;;;;;81.38;55.95;;;8.20;99.90;;;;;;5050942;28;20464;-82
2022/03/02 04:50:53;;;;;;;76.95;51.25;;;8.50;99.90;;;;;;5049298;28;20111;-82
2022/03/02 04:53:23;;;;;;;65.75;43.38;;;8.50;99.90;;;;;;5050900;28;20116;-80
2022/03/02 04:55:50;;;;;;;61.65;40.55;;;8.40;99.90;;;;;;5046165;28;20430;-81
2022/03/02 04:58:17;;;;;;;54.40;38.33;;;8.40;99.90;;;;;;5028823;28;20420;-83
2022/03/02 05:00:43;;;;;;;49.17;35.00;;;8.60;99.90;;;;;;5044175;28;20106;-83
2022/03/02 05:03:09;;;;;;;52.22;34.55;;;8.50;99.90;;;;;;5044849;28;20021;-82
2022/03/02 05:05:37;;;;;;;47.70;33.50;;;8.50;99.90;;;;;;5044853;28;20055;-85
2022/03/02 05:08:05;;;;;;;56.30;35.67;;;8.80;99.90;;;;;;5047121;28;20438;-83
2022/03/02 05:10:34;;;;;;;58.72;36.83;;;8.50;99.90;;;;;;5042214;28;20035;-83
2022/03/02 05:13:02;;;;;;;51.75;35.60;;;8.40;99.90;;;;;;5046036;28;20107;-83
2022/03/02 05:15:28;;;;;;;56.42;37.72;;;8.50;99.90;;;;;;5044708;28;20071;-82
2022/03/02 05:17:54;;;;;;;60.78;38.63;;;8.90;99.90;;;;;;5030905;28;20048;-82
2022/03/02 05:20:21;;;;;;;52.22;37.33;;;9.20;99.90;;;;;;5044640;28;20079;-83
2022/03/02 05:22:47;;;;;;;58.33;36.58;;;9.50;99.90;;;;;;5047897;28;20032;-83
2022/03/02 05:25:15;;;;;;;45.60;30.63;;;9.70;99.90;;;;;;5030832;28;20444;-82
2022/03/02 05:27:42;;;;;;;39.75;28.88;;;9.50;99.90;;;;;;5029538;28;20040;-82
2022/03/02 05:30:11;;;;;;;36.97;23.23;;;9.50;99.90;;;;;;5047191;28;20487;-82
2022/03/02 05:32:38;;;;;;;29.75;19.83;;;9.70;99.90;;;;;;5030765;28;20033;-81
2022/03/02 05:35:05;;;;;;;35.25;18.10;;;9.90;99.90;;;;;;5048959;28;20017;-83
2022/03/02 05:37:33;;;;;;;24.88;17.33;;;10.10;99.90;;;;;;5026435;28;20056;-81
2022/03/02 05:40:00;;;;;;;26.88;18.33;;;10.10;99.90;;;;;;5009122;28;20028;-80
2022/03/02 05:42:26;;;;;;;30.40;19.02;;;10.30;99.90;;;;;;5005153;28;20087;-83
2022/03/02 05:44:52;;;;;;;34.13;22.50;;;10.40;99.90;;;;;;5024366;28;20061;-83
2022/03/02 05:47:18;;;;;;;40.63;24.58;;;10.30;99.90;;;;;;5006005;28;20033;-81
2022/03/02 05:49:44;;;;;;;36.50;24.73;;;10.20;99.90;;;;;;5008122;28;20092;-80
2022/03/02 05:52:13;;;;;;;35.63;24.80;;;10.20;99.90;;;;;;5026488;28;20026;-83
2022/03/02 05:54:39;;;;;;;35.72;24.60;;;10.20;99.90;;;;;;5030276;28;20040;-82
2022/03/02 05:57:05;;;;;;;36.55;25.65;;;10.20;99.90;;;;;;5029582;28;20079;-84
2022/03/02 05:59:32;;;;;;;37.88;25.08;;;10.30;99.90;;;;;;5010329;28;20028;-85
2022/03/02 06:01:58;;;;;;;39.70;26.85;;;10.50;99.90;;;;;;5010372;28;20108;-83
2022/03/02 06:04:24;;;;;;;44.20;30.38;;;10.40;99.90;;;;;;5023951;28;20538;-85
2022/03/02 06:06:50;;;;;;;46.45;30.38;;;10.30;99.90;;;;;;5011797;28;20369;-83
2022/03/02 06:09:17;;;;;;;50.45;32.55;;;10.50;99.90;;;;;;5030377;28;20036;-83
2022/03/02 06:11:43;;;;;;;48.47;32.92;;;10.40;99.90;;;;;;5023337;28;20102;-84
2022/03/02 06:14:11;;;;;;;48.13;31.30;;;10.60;99.90;;;;;;5048374;28;20029;-82
2022/03/02 06:16:37;;;;;;;53.08;36.42;;;10.70;99.90;;;;;;5036044;28;20034;-82
2022/03/02 06:19:04;;;;;;;59.33;38.80;;;10.60;99.90;;;;;;5053672;28;20021;-82
2022/03/02 06:21:32;;;;;;;56.55;36.97;;;10.60;99.90;;;;;;5050868;28;20538;-81
2022/03/02 06:23:58;;;;;;;57.33;39.03;;;10.80;99.90;;;;;;5043381;28;20028;-82
2022/03/02 06:26:26;;;;;;;57.10;39.47;;;10.70;99.90;;;;;;5027651;28;20116;-82
2022/03/02 06:28:55;;;;;;;58.28;42.00;;;10.70;99.90;;;;;;5043706;28;20395;-84
2022/03/02 06:31:22;;;;;;;55.58;39.20;;;10.70;99.90;;;;;;5047490;28;21365;-86
2022/03/02 06:33:48;;;;;;;59.38;39.92;;;10.90;99.90;;;;;;5051329;28;20057;-84
2022/03/02 06:36:15;;;;;;;60.72;40.38;;;10.80;99.90;;;;;;5045309;28;20087;-84
2022/03/02 06:38:41;;;;;;;52.13;37.67;;;10.90;99.90;;;;;;5024897;28;20471;-85
2022/03/02 06:41:14;;;;;;;52.30;34.20;;;11.10;99.90;;;;;;5043425;28;20718;-86
2022/03/02 06:43:51;;;;;;;51.33;33.10;;;11.10;99.90;;;;;;5025233;28;20040;-81
2022/03/02 06:46:39;;;;;;;43.17;27.95;;;10.80;99.90;;;;;;5040730;28;20120;-81
2022/03/02 06:49:29;;;;;;;39.40;27.25;;;10.20;99.90;;;;;;5044649;28;20025;-82
2022/03/02 06:51:59;;;;;;;36.17;23.48;;;10.70;99.90;;;;;;5050912;28;20115;-81
2022/03/02 06:54:30;;;;;;;37.53;23.20;;;10.90;99.90;;;;;;5045521;28;20029;-81
2022/03/02 06:57:01;;;;;;;35.20;21.40;;;11.10;99.90;;;;;;5030273;28;20027;-85
2022/03/02 06:59:38;;;;;;;31.02;21.00;;;10.80;99.90;;;;;;5027500;28;20017;-86
2022/03/02 07:02:06;;;;;;;29.45;20.17;;;10.80;99.90;;;;;;5028459;28;20078;-83
2022/03/02 07:04:36;;;;;;;36.92;22.38;;;10.60;99.90;;;;;;5049610;28;20029;-84
2022/03/02 07:07:03;;;;;;;31.13;21.63;;;10.80;99.90;;;;;;5025981;28;20033;-84
2022/03/02 07:09:31;;;;;;;31.63;20.77;;;10.90;99.90;;;;;;5041639;28;20043;-84
2022/03/02 07:12:00;;;;;;;38.33;22.50;;;10.40;99.90;;;;;;5025948;28;20033;-84
2022/03/02 07:14:31;;;;;;;34.67;22.67;;;10.20;99.90;;;;;;5043559;28;20033;-83
2022/03/02 07:16:58;;;;;;;35.95;23.67;;;10.30;99.90;;;;;;5049202;28;20037;-86
2022/03/02 07:19:26;;;;;;;35.70;23.88;;;10.30;99.90;;;;;;5032975;28;20036;-86
2022/03/02 07:21:53;;;;;;;32.05;23.45;;;10.10;99.90;;;;;;5036114;28;20025;-84
2022/03/02 07:24:25;;;;;;;30.73;22.95;;;10.20;99.90;;;;;;5052683;28;20029;-83
2022/03/02 07:26:54;;;;;;;34.88;23.30;;;10.10;99.90;;;;;;5041667;28;20025;-85
2022/03/02 07:29:28;;;;;;;35.42;25.13;;;9.70;99.90;;;;;;5074933;28;20064;-86
2022/03/02 07:31:57;;;;;;;37.85;23.90;;;9.70;99.90;;;;;;5036315;28;20021;-82
2022/03/02 07:34:26;;;;;;;38.55;25.02;;;9.40;99.90;;;;;;5037949;28;20118;-81
2022/03/02 07:36:56;;;;;;;35.20;23.25;;;9.60;99.90;;;;;;5031977;28;20037;-81
2022/03/02 07:39:28;;;;;;;33.65;23.10;;;9.70;99.90;;;;;;5049939;28;20037;-82
2022/03/02 07:42:05;;;;;;;31.90;21.25;;;9.80;99.90;;;;;;5037879;28;20029;-82
2022/03/02 07:44:31;;;;;;;29.05;20.77;;;9.70;99.90;;;;;;5050635;28;20487;-80
2022/03/02 07:46:57;;;;;;;32.95;20.50;;;9.70;99.90;;;;;;5042673;28;20030;-80
2022/03/02 07:49:23;;;;;;;28.55;18.85;;;9.70;99.90;;;;;;5031261;28;20115;-82
2022/03/02 07:51:54;;;;;;;29.45;20.27;;;9.80;99.90;;;;;;5050062;28;20060;-82
2022/03/02 07:54:22;;;;;;;34.35;21.08;;;9.90;99.90;;;;;;5051148;28;20029;-83
2022/03/02 07:56:50;;;;;;;30.35;20.92;;;9.90;99.90;;;;;;5051554;28;20371;-85
2022/03/02 07:59:17;;;;;;;34.70;22.50;;;9.80;99.90;;;;;;5036991;28;20118;-81
2022/03/02 08:01:44;;;;;;;30.25;20.35;;;9.80;99.90;;;;;;5051504;28;20025;-83
2022/03/02 08:04:11;;;;;;;31.55;20.45;;;9.90;99.90;;;;;;5051511;28;20013;-81
2022/03/02 08:06:39;;;;;;;29.05;19.17;;;9.80;99.90;;;;;;5031012;28;20396;-78
2022/03/02 08:09:08;;;;;;;29.35;20.23;;;9.90;99.90;;;;;;5053115;28;20027;-81
2022/03/02 08:11:40;;;;;;;27.02;20.17;;;10.00;99.90;;;;;;5047447;28;20025;-79
2022/03/02 08:14:07;;;;;;;32.80;21.23;;;10.00;99.90;;;;;;5034980;28;20032;-85
2022/03/02 08:16:33;;;;;;;31.50;21.88;;;9.70;99.90;;;;;;5031902;28;20402;-85
2022/03/02 08:19:04;;;;;;;30.27;19.42;;;9.70;99.90;;;;;;5045515;28;20286;-82
2022/03/02 08:21:32;;;;;;;30.85;20.30;;;8.90;99.90;;;;;;5052010;28;20045;-81
2022/03/02 08:24:11;;;;;;;30.58;21.55;;;8.70;99.90;;;;;;5057779;28;20441;-83
2022/03/02 08:26:39;;;;;;;32.65;22.05;;;8.20;99.90;;;;;;5046073;28;20099;-86
2022/03/02 08:29:08;;;;;;;31.70;21.48;;;8.20;99.90;;;;;;5059553;28;20037;-83
2022/03/02 08:31:41;;;;;;;31.38;21.40;;;8.00;99.90;;;;;;5043529;28;20032;-82
2022/03/02 08:34:07;;;;;;;31.30;20.23;;;7.90;99.90;;;;;;5047278;28;20360;-81
2022/03/02 08:36:43;;;;;;;31.00;21.13;;;7.60;99.90;;;;;;5043372;28;20494;-84
2022/03/02 08:39:11;;;;;;;34.42;22.95;;;7.40;99.90;;;;;;5052438;28;20048;-86
2022/03/02 08:41:39;;;;;;;33.28;21.30;;;7.30;99.90;;;;;;5056620;28;20025;-84
2022/03/02 08:44:06;;;;;;;33.00;22.45;;;7.40;99.90;;;;;;5034827;28;20052;-83
2022/03/02 08:46:33;;;;;;;32.13;21.55;;;7.60;99.90;;;;;;5048648;28;20167;-82
2022/03/02 08:48:59;;;;;;;35.40;21.73;;;7.30;99.90;;;;;;5049815;28;20486;-81
2022/03/02 08:51:26;;;;;;;29.02;20.02;;;7.30;99.90;;;;;;5045919;28;20134;-81
2022/03/02 08:53:59;;;;;;;31.83;20.08;;;7.30;99.90;;;;;;5030675;28;21231;-84
2022/03/02 08:56:27;;;;;;;30.02;18.98;;;7.30;99.90;;;;;;5036981;28;20120;-82
2022/03/02 08:58:54;;;;;;;27.45;19.73;;;7.30;99.90;;;;;;5051551;28;20079;-83
2022/03/02 09:01:21;;;;;;;28.15;18.80;;;7.30;99.90;;;;;;5047672;28;20021;-82
2022/03/02 09:03:53;;;;;;;30.17;21.25;;;7.40;99.90;;;;;;5051336;28;20561;-78
2022/03/02 09:06:22;;;;;;;36.30;22.35;;;7.30;99.90;;;;;;5054551;28;20394;-80
2022/03/02 09:08:51;;;;;;;38.38;24.73;;;7.10;99.90;;;;;;5047945;28;20093;-82
2022/03/02 09:11:17;;;;;;;35.22;22.95;;;7.10;99.90;;;;;;5040862;28;20116;-81
2022/03/02 09:13:43;;;;;;;29.73;20.48;;;7.20;99.90;;;;;;5047224;28;20029;-80
2022/03/02 09:16:10;;;;;;;34.22;21.90;;;7.20;99.90;;;;;;5054097;28;20021;-82
2022/03/02 09:18:36;;;;;;;30.95;21.92;;;7.50;99.90;;;;;;5059842;28;20044;-82
2022/03/02 09:21:08;;;;;;;38.63;24.27;;;7.40;99.90;;;;;;5056798;28;20032;-82
2022/03/02 09:23:40;;;;;;;31.20;21.65;;;7.30;99.90;;;;;;5048802;28;20019;-82
2022/03/02 09:26:10;;;;;;;38.83;26.08;;;7.10;99.90;;;;;;5044460;28;20032;-82
2022/03/02 09:28:38;;;;;;;40.28;23.48;;;6.90;99.90;;;;;;5057417;28;20044;-81
2022/03/02 09:31:07;;;;;;;36.67;23.42;;;6.90;99.90;;;;;;5047484;28;20045;-83
2022/03/02 09:33:37;;;;;;;38.28;23.80;;;7.00;99.90;;;;;;5046741;28;20091;-81
2022/03/02 09:36:11;;;;;;;31.40;20.58;;;7.10;99.90;;;;;;5029984;28;20032;-83
2022/03/02 09:38:39;;;;;;;30.42;19.92;;;6.90;99.90;;;;;;5034865;28;20041;-83
2022/03/02 09:41:31;;;;;;;30.42;20.55;;;7.00;99.90;;;;;;5026975;28;20513;-83
2022/03/02 09:43:59;;;;;;;33.25;21.65;;;7.00;99.90;;;;;;5033044;28;20152;-82
2022/03/02 09:46:50;;;;;;;34.78;20.02;;;7.10;99.90;;;;;;5059465;28;20292;-83
2022/03/02 09:49:21;;;;;;;30.13;20.42;;;7.10;99.90;;;;;;5036044;28;20076;-79
2022/03/02 09:51:52;;;;;;;35.15;22.52;;;7.00;99.90;;;;;;5038223;28;20041;-79
2022/03/02 09:54:22;;;;;;;36.63;25.95;;;6.90;99.90;;;;;;5057396;28;20084;-79
2022/03/02 09:56:53;;;;;;;40.15;28.25;;;6.90;99.90;;;;;;5051595;28;20021;-80
2022/03/02 09:59:23;;;;;;;44.05;29.00;;;7.00;99.90;;;;;;5033158;28;20059;-81
2022/03/02 10:01:52;;;;;;;43.42;27.60;;;7.00;99.90;;;;;;5048265;28;20037;-82
2022/03/02 10:04:22;;;;;;;34.90;24.42;;;7.10;99.90;;;;;;5059416;28;20032;-82
2022/03/02 10:07:45;;;;;;;33.70;24.05;;;7.10;99.90;;;;;;5051398;28;20107;-80
2022/03/02 10:09:51;;;;;;;28.95;19.75;;;7.10;99.90;;;;;;5016883;28;20037;-78
2022/03/02 10:12:21;;;;;;;27.33;19.85;;;6.90;99.90;;;;;;5028981;28;20033;-77
2022/03/02 10:14:49;;;;;;;29.02;18.80;;;7.20;99.90;;;;;;5032090;28;20557;-80
2022/03/02 10:17:37;;;;;;;28.15;18.77;;;7.20;99.90;;;;;;5053123;28;20032;-80
2022/03/02 10:20:11;;;;;;;26.38;18.23;;;7.20;99.90;;;;;;5054637;28;20032;-78
2022/03/02 10:22:40;;;;;;;26.27;18.50;;;7.20;99.90;;;;;;5028697;28;20028;-81
2022/03/02 10:25:13;;;;;;;29.05;19.08;;;7.20;99.90;;;;;;5047148;28;20479;-80
2022/03/02 10:28:05;;;;;;;24.38;16.95;;;7.30;99.90;;;;;;5047381;28;20025;-80
2022/03/02 10:30:40;;;;;;;23.42;16.85;;;7.50;99.90;;;;;;5026630;28;20053;-79
2022/03/02 10:33:26;;;;;;;36.50;26.25;;;7.60;99.90;;;;;;5029294;28;20029;-80
2022/03/02 10:36:26;;;;;;;29.92;19.50;;;7.70;99.90;;;;;;5046554;28;20025;-79
2022/03/02 10:38:59;;;;;;;24.58;16.10;;;7.70;99.90;;;;;;4932806;28;1534296;-81
2022/03/02 10:41:27;;;;;;;32.00;20.27;;;7.30;99.90;;;;;;5011862;28;20033;-79
2022/03/02 10:43:58;;;;;;;23.08;15.50;;;7.30;99.90;;;;;;5027535;28;20053;-79
2022/03/02 10:46:26;;;;;;;26.35;16.30;;;7.40;99.90;;;;;;5026030;28;20104;-81
2022/03/02 10:49:11;;;;;;;25.65;16.33;;;7.50;99.90;;;;;;5031578;28;20120;-79
2022/03/02 10:51:41;;;;;;;27.58;16.95;;;7.50;99.90;;;;;;5017266;28;20026;-82
2022/03/02 10:54:08;;;;;;;20.83;15.05;;;7.60;99.90;;;;;;5017523;28;20021;-81
2022/03/02 10:56:39;;;;;;;23.38;15.13;;;7.60;99.90;;;;;;5034048;28;20033;-81
2022/03/02 10:59:16;;;;;;;20.70;14.52;;;7.90;99.90;;;;;;5040117;28;20025;-82
2022/03/02 11:01:44;;;;;;;24.27;15.05;;;8.00;99.90;;;;;;5033911;28;20380;-78
2022/03/02 11:04:11;;;;;;;21.48;14.55;;;8.10;99.90;;;;;;5017583;28;20025;-80
2022/03/02 11:06:38;;;;;;;21.20;15.10;;;8.10;99.90;;;;;;5037590;28;20033;-78
2022/03/02 11:09:05;;;;;;;19.02;13.27;;;7.90;99.90;;;;;;5019380;28;20025;-81
2022/03/02 11:11:37;;;;;;;26.15;15.65;;;7.70;99.90;;;;;;5035950;28;20076;-78
2022/03/02 11:14:07;;;;;;;19.50;13.43;;;7.80;99.90;;;;;;5039378;28;20018;-81
2022/03/02 11:16:33;;;;;;;19.88;13.13;;;7.80;99.90;;;;;;5031075;28;20534;-81
2022/03/02 11:19:15;;;;;;;20.30;14.50;;;7.80;99.90;;;;;;5032048;28;20022;-80
2022/03/02 11:21:43;;;;;;;20.30;14.00;;;7.70;99.90;;;;;;5033132;28;20084;-77
2022/03/02 11:24:16;;;;;;;20.95;13.48;;;7.80;99.90;;;;;;5028460;28;20029;-81
2022/03/02 11:26:44;;;;;;;20.83;14.85;;;8.00;99.90;;;;;;5032308;28;20029;-76
2022/03/02 11:29:19;;;;;;;19.58;13.27;;;7.80;99.90;;;;;;5034081;28;20397;-80
2022/03/02 11:31:56;;;;;;;19.10;13.57;;;7.50;99.90;;;;;;5017828;28;20040;-82
2022/03/02 11:35:05;;;;;;;17.58;12.93;;;7.50;99.90;;;;;;5034984;28;20122;-83
2022/03/02 11:37:33;;;;;;;18.35;12.45;;;7.40;99.90;;;;;;4951016;28;20746;-81
2022/03/02 11:40:00;;;;;;;16.33;11.95;;;7.40;99.90;;;;;;5026461;28;20048;-82
2022/03/02 11:42:32;;;;;;;18.63;12.60;;;7.40;99.90;;;;;;5033066;28;20029;-81
2022/03/02 11:45:00;;;;;;;17.80;12.10;;;7.40;99.90;;;;;;5050741;28;20513;-76
2022/03/02 11:47:35;;;;;;;20.05;12.73;;;7.40;99.90;;;;;;5049676;28;20070;-76
2022/03/02 11:50:23;;;;;;;20.40;13.65;;;7.70;99.90;;;;;;5032282;28;20048;-75
2022/03/02 11:52:49;;;;;;;24.35;15.10;;;7.60;99.90;;;;;;5026926;28;20485;-79
2022/03/02 11:55:18;;;;;;;21.42;14.10;;;7.50;99.90;;;;;;5047444;28;20021;-83
2022/03/02 11:57:49;;;;;;;22.75;14.10;;;7.50;99.90;;;;;;5048326;28;20018;-80
2022/03/02 12:00:18;;;;;;;23.42;15.07;;;7.70;99.90;;;;;;5042171;28;20036;-81
2022/03/02 12:02:57;;;;;;;26.42;15.88;;;7.80;99.90;;;;;;5051862;28;20025;-80
2022/03/02 12:05:31;;;;;;;24.95;15.10;;;7.90;99.90;;;;;;5055775;28;20023;-80
2022/03/02 12:08:06;;;;;;;22.65;15.63;;;7.90;99.90;;;;;;5060678;28;20116;-78
2022/03/02 12:10:56;;;;;;;26.10;15.82;;;7.80;99.90;;;;;;5038617;28;20021;-80
2022/03/02 12:13:22;;;;;;;28.35;16.75;;;7.80;99.90;;;;;;5036437;28;20490;-79
2022/03/02 12:15:51;;;;;;;30.92;17.42;;;7.50;99.90;;;;;;5047291;28;20025;-80
2022/03/02 12:18:19;;;;;;;24.35;16.55;;;7.60;99.90;;;;;;5051196;28;20040;-79
2022/03/02 12:20:46;;;;;;;27.25;15.50;;;7.40;99.90;;;;;;5051172;28;20032;-81
2022/03/02 12:23:13;;;;;;;28.42;16.23;;;7.30;99.90;;;;;;5037398;28;20032;-81
2022/03/02 12:25:45;;;;;;;29.67;18.27;;;7.30;99.90;;;;;;5051252;28;20067;-80
2022/03/02 12:28:19;;;;;;;28.42;18.40;;;7.50;99.90;;;;;;5039239;28;20025;-80
2022/03/02 12:30:45;;;;;;;28.05;18.25;;;7.70;99.90;;;;;;5028958;28;20033;-79
2022/03/02 12:33:16;;;;;;;27.42;18.55;;;7.70;99.90;;;;;;5038704;28;20037;-79
2022/03/02 12:35:42;;;;;;;28.70;17.25;;;7.50;99.90;;;;;;5056016;28;20025;-76
2022/03/02 12:38:11;;;;;;;31.73;18.75;;;7.60;99.90;;;;;;5037894;28;20049;-79
2022/03/02 12:40:42;;;;;;;31.25;18.77;;;7.70;99.90;;;;;;5049256;28;20029;-78
2022/03/02 12:43:16;;;;;;;24.73;16.67;;;7.70;99.90;;;;;;5047110;28;20028;-77
2022/03/02 12:45:49;;;;;;;28.73;18.92;;;7.80;99.90;;;;;;5063393;28;20100;-79